Time;durP1;ratioP1;P1;durP2;ratioP2;P2;SDS_P1;SDS_P2;PMS_P1;PMS_P2;Temp;Humidity;BMP_temperature;BMP_pressure;BME280_temperature;BME280_humidity;BME280_pressure;Samples;Min_cycle;Max_cycle;Signal;HPM_P1;HPM_P2
2023/08/07 00:00:21;;;;;;;1.85;0.40;;;;;;;26.46;46.54;100200.53;7391544;19;20019;-56
2023/08/07 00:02:47;;;;;;;0.10;0.10;;;;;;;26.48;46.53;100197.84;7390654;19;20010;-56
2023/08/07 00:05:13;;;;;;;0.10;0.10;;;;;;;26.34;46.60;100193.72;7391532;19;20074;-56
2023/08/07 00:07:40;;;;;;;1.15;0.55;;;;;;;26.31;47.06;100187.06;7391125;19;20345;-55
2023/08/07 00:10:06;;;;;;;0.30;0.20;;;;;;;26.41;46.55;100181.50;7394875;19;20010;-56
2023/08/07 00:12:33;;;;;;;0.43;0.40;;;;;;;26.40;46.63;100182.81;7390158;19;20344;-56
2023/08/07 00:14:59;;;;;;;0.77;0.50;;;;;;;26.39;47.25;100187.03;7392540;19;20363;-56
2023/08/07 00:17:25;;;;;;;0.10;0.10;;;;;;;26.49;47.06;100185.06;7392687;19;20355;-56
2023/08/07 00:19:51;;;;;;;0.25;0.25;;;;;;;26.50;47.35;100182.97;7393310;19;20014;-56
2023/08/07 00:22:17;;;;;;;1.10;0.40;;;;;;;26.46;47.66;100182.63;7400283;19;20018;-56
2023/08/07 00:24:44;;;;;;;0.10;0.10;;;;;;;26.48;47.27;100183.56;7399405;19;20014;-56
2023/08/07 00:27:11;;;;;;;3.92;0.40;;;;;;;26.52;48.00;100181.06;7398377;19;20034;-56
2023/08/07 00:29:38;;;;;;;0.30;0.25;;;;;;;26.55;48.02;100182.75;7397775;19;20038;-56
2023/08/07 00:32:05;;;;;;;0.13;0.13;;;;;;;26.96;48.00;100181.41;7400092;19;20006;-56
2023/08/07 00:34:31;;;;;;;0.32;0.10;;;;;;;27.08;47.86;100175.97;7402077;19;20045;-56
2023/08/07 00:36:57;;;;;;;0.57;0.38;;;;;;;27.08;48.18;100175.97;7399758;19;20025;-56
2023/08/07 00:39:23;;;;;;;1.50;0.30;;;;;;;27.02;48.95;100173.34;7398553;19;20025;-56
2023/08/07 00:41:51;;;;;;;0.40;0.30;;;;;;;27.08;49.42;100170.25;7399375;19;20013;-56
2023/08/07 00:44:17;;;;;;;0.45;0.25;;;;;;;27.09;49.48;100171.78;7399226;19;20031;-56
2023/08/07 00:46:43;;;;;;;0.82;0.50;;;;;;;28.09;47.38;100162.47;7399472;19;20021;-57
2023/08/07 00:49:11;;;;;;;0.10;0.10;;;;;;;27.27;49.33;100159.03;7396584;19;20015;-57
2023/08/07 00:51:39;;;;;;;0.30;0.15;;;;;;;27.46;49.60;100160.03;7401052;19;20066;-57
2023/08/07 00:54:07;;;;;;;0.90;0.30;;;;;;;27.65;49.37;100162.34;7397247;19;20011;-57
2023/08/07 00:56:34;;;;;;;1.75;0.30;;;;;;;27.71;50.13;100154.25;7393379;19;20014;-56
2023/08/07 00:59:01;;;;;;;0.63;0.20;;;;;;;27.79;49.97;100149.19;7393263;19;20018;-57
2023/08/07 01:01:28;;;;;;;0.65;0.30;;;;;;;27.85;50.42;100149.72;7397743;19;20010;-57
2023/08/07 01:03:54;;;;;;;0.10;0.10;;;;;;;27.91;50.11;100141.63;7395758;19;20022;-57
2023/08/07 01:06:21;;;;;;;2.95;1.35;;;;;;;27.86;49.78;100148.38;7397358;19;20491;-56
2023/08/07 01:08:47;;;;;;;1.75;0.20;;;;;;;27.80;49.83;100142.13;7396769;19;20018;-56
2023/08/07 01:11:43;;;;;;;2.17;0.85;;;;;;;27.74;49.81;100144.50;7401909;19;20010;-56
2023/08/07 01:14:24;;;;;;;0.38;0.38;;;;;;;27.60;49.70;100143.31;7400763;19;20028;-56
2023/08/07 01:16:57;;;;;;;1.40;0.70;;;;;;;27.53;49.86;100142.03;7398787;19;20332;-57
2023/08/07 01:19:25;;;;;;;1.65;0.82;;;;;;;27.59;49.53;100145.41;7397563;19;20006;-56
2023/08/07 01:22:10;;;;;;;0.43;0.22;;;;;;;27.59;49.14;100136.81;7394209;19;20029;-56
2023/08/07 01:24:40;;;;;;;1.60;0.70;;;;;;;27.43;49.72;100138.31;7395572;19;20011;-57
2023/08/07 01:27:18;;;;;;;0.20;0.17;;;;;;;27.49;49.22;100143.78;7396742;19;20466;-56
2023/08/07 01:30:22;;;;;;;0.10;0.10;;;;;;;27.35;49.17;100145.44;7401673;19;20006;-56
2023/08/07 01:33:25;;;;;;;0.40;0.10;;;;;;;27.12;50.04;100136.28;7395660;19;20018;-56
2023/08/07 01:35:57;;;;;;;1.05;0.95;;;;;;;27.05;50.18;100144.34;7395624;19;20078;-56
2023/08/07 01:38:25;;;;;;;1.17;0.38;;;;;;;27.01;50.43;100146.84;7399302;19;20017;-56
2023/08/07 01:40:53;;;;;;;4.43;0.40;;;;;;;27.00;50.77;100142.50;7399044;19;20007;-56
2023/08/07 01:43:19;;;;;;;8.07;0.45;;;;;;;26.75;51.36;100150.28;7392371;19;20017;-56
2023/08/07 01:45:46;;;;;;;0.47;0.20;;;;;;;26.90;51.81;100150.19;7397690;19;20014;-57
2023/08/07 01:48:12;;;;;;;1.38;0.28;;;;;;;26.89;51.82;100148.66;7397765;19;20363;-57
2023/08/07 01:50:39;;;;;;;0.50;0.30;;;;;;;27.10;52.37;100145.44;7395651;19;20462;-56
2023/08/07 01:53:05;;;;;;;1.80;0.30;;;;;;;27.25;52.28;100153.13;7395434;19;20010;-56
2023/08/07 01:55:31;;;;;;;0.47;0.47;;;;;;;27.25;52.00;100145.31;7396585;19;20491;-56
2023/08/07 01:57:58;;;;;;;1.65;0.55;;;;;;;27.37;52.39;100145.63;7396120;19;20367;-52
2023/08/07 02:00:24;;;;;;;0.38;0.22;;;;;;;27.30;52.29;100150.06;7395043;19;20466;-52
2023/08/07 02:02:50;;;;;;;1.40;0.22;;;;;;;27.26;52.61;100151.81;7393612;19;20450;-51
2023/08/07 02:05:16;;;;;;;0.70;0.30;;;;;;;26.98;52.17;100153.72;7396115;19;20017;-51
2023/08/07 02:07:44;;;;;;;0.40;0.40;;;;;;;26.82;52.60;100155.19;7395150;19;20493;-51
2023/08/07 02:10:10;;;;;;;0.70;0.25;;;;;;;26.74;52.27;100154.50;7396343;19;20349;-52
2023/08/07 02:12:36;;;;;;;2.85;1.05;;;;;;;26.79;52.31;100159.22;7393949;19;20070;-52
2023/08/07 02:15:03;;;;;;;0.85;0.50;;;;;;;26.63;52.00;100154.16;7394349;19;20010;-52
2023/08/07 02:17:30;;;;;;;0.68;0.55;;;;;;;26.61;52.12;100157.59;7395299;19;20014;-51
2023/08/07 02:19:57;;;;;;;1.60;0.63;;;;;;;26.69;52.02;100164.00;7396363;19;20532;-51
2023/08/07 02:22:24;;;;;;;0.45;0.25;;;;;;;26.79;52.50;100153.50;7395344;19;20014;-52
2023/08/07 02:24:50;;;;;;;0.25;0.20;;;;;;;26.88;51.77;100158.56;7398515;19;20015;-52
2023/08/07 02:27:16;;;;;;;1.88;0.52;;;;;;;26.98;51.79;100162.31;7394264;19;20015;-52
2023/08/07 02:29:42;;;;;;;0.45;0.45;;;;;;;27.10;51.77;100156.13;7393318;19;20010;-51
2023/08/07 02:32:08;;;;;;;1.92;0.30;;;;;;;27.08;51.47;100158.81;7393611;19;20010;-52
2023/08/07 02:34:35;;;;;;;0.10;0.10;;;;;;;27.17;50.93;100161.03;7395060;19;20495;-52
2023/08/07 02:37:01;;;;;;;0.88;0.38;;;;;;;27.07;51.02;100163.03;7398041;19;20336;-52
2023/08/07 02:39:27;;;;;;;1.48;0.57;;;;;;;27.08;51.08;100170.25;7399462;19;20011;-52
2023/08/07 02:41:53;;;;;;;0.32;0.32;;;;;;;26.99;51.39;100171.66;7392623;19;20045;-52
2023/08/07 02:44:20;;;;;;;0.20;0.20;;;;;;;26.92;51.39;100176.06;7394447;19;20026;-52
2023/08/07 02:46:46;;;;;;;1.48;0.80;;;;;;;26.87;51.48;100171.38;7394949;19;20035;-52
2023/08/07 02:49:13;;;;;;;1.10;0.57;;;;;;;26.95;51.20;100177.78;7398999;19;20003;-52
2023/08/07 02:51:39;;;;;;;0.30;0.20;;;;;;;26.96;51.83;100170.72;7394539;19;21093;-51
2023/08/07 02:54:05;;;;;;;0.10;0.10;;;;;;;26.97;51.55;100166.53;7393132;19;20018;-52
2023/08/07 02:56:32;;;;;;;1.08;0.93;;;;;;;26.88;52.05;100170.00;7389494;19;20045;-52
2023/08/07 02:58:59;;;;;;;0.70;0.45;;;;;;;26.92;51.61;100164.63;7394942;19;20011;-52
2023/08/07 03:01:27;;;;;;;0.20;0.17;;;;;;;27.08;51.42;100164.53;7388747;19;20007;-52
2023/08/07 03:03:53;;;;;;;2.70;0.57;;;;;;;27.10;51.41;100171.19;7389889;19;20014;-51
2023/08/07 03:06:20;;;;;;;2.95;0.25;;;;;;;27.11;51.94;100163.38;7388584;19;20099;-52
2023/08/07 03:08:46;;;;;;;0.20;0.10;;;;;;;27.20;52.44;100159.88;7391689;19;20021;-52
2023/08/07 03:11:12;;;;;;;2.13;0.20;;;;;;;27.26;52.41;100157.53;7398894;19;20019;-52
2023/08/07 03:13:38;;;;;;;0.20;0.20;;;;;;;27.32;52.49;100155.19;7393294;19;20037;-52
2023/08/07 03:16:06;;;;;;;0.50;0.25;;;;;;;27.46;52.48;100153.56;7394080;19;20011;-52
2023/08/07 03:18:32;;;;;;;1.80;0.25;;;;;;;27.59;52.74;100156.09;7396244;19;20041;-51
2023/08/07 03:20:59;;;;;;;4.90;0.32;;;;;;;27.74;52.39;100153.09;7392467;19;20486;-52
2023/08/07 03:23:27;;;;;;;0.20;0.20;;;;;;;27.80;52.20;100156.44;7391024;19;20010;-52
2023/08/07 03:26:07;;;;;;;3.30;1.17;;;;;;;27.84;52.28;100153.91;7392322;19;20006;-52
2023/08/07 03:28:35;;;;;;;0.40;0.40;;;;;;;27.90;52.15;100157.28;7394213;19;20343;-52
2023/08/07 03:31:02;;;;;;;1.75;0.30;;;;;;;27.87;52.12;100155.63;7392373;19;20111;-52
2023/08/07 03:33:31;;;;;;;0.60;0.50;;;;;;;27.78;52.62;100156.28;7395279;19;20010;-51
2023/08/07 03:35:57;;;;;;;2.08;0.40;;;;;;;27.78;52.79;100159.16;7392358;19;20042;-52
2023/08/07 03:38:23;;;;;;;1.40;0.40;;;;;;;27.78;52.31;100154.19;7395267;19;20805;-51
2023/08/07 03:40:52;;;;;;;0.47;0.30;;;;;;;27.77;52.53;100154.75;7395909;19;20018;-52
2023/08/07 03:43:19;;;;;;;0.20;0.20;;;;;;;27.64;52.24;100155.84;7391595;19;20007;-52
2023/08/07 03:45:45;;;;;;;0.98;0.40;;;;;;;27.81;52.33;100143.63;7392934;19;20029;-52
2023/08/07 03:48:11;;;;;;;0.20;0.10;;;;;;;27.68;51.86;100138.25;7392535;19;20019;-51
2023/08/07 03:50:37;;;;;;;0.40;0.32;;;;;;;27.65;51.68;100139.44;7391302;19;20014;-52
2023/08/07 03:53:07;;;;;;;1.75;0.20;;;;;;;27.47;51.86;100138.66;7391677;19;20078;-52
2023/08/07 03:55:35;;;;;;;0.85;0.47;;;;;;;27.44;50.65;100141.94;7398982;19;20014;-52
2023/08/07 03:58:02;;;;;;;0.10;0.10;;;;;;;27.28;50.93;100141.31;7398846;19;20022;-52
2023/08/07 04:00:29;;;;;;;0.20;0.20;;;;;;;26.99;50.88;100138.09;7400569;19;20025;-52
2023/08/07 04:02:55;;;;;;;0.20;0.20;;;;;;;27.00;50.77;100136.00;7395599;19;20039;-51
2023/08/07 04:05:21;;;;;;;0.30;0.20;;;;;;;27.10;50.43;100144.69;7399800;19;20010;-52
2023/08/07 04:07:48;;;;;;;0.45;0.28;;;;;;;27.00;50.23;100142.50;7400302;19;20621;-52
2023/08/07 04:10:14;;;;;;;0.68;0.20;;;;;;;26.84;50.76;100140.31;7402293;19;20038;-52
2023/08/07 04:12:40;;;;;;;0.30;0.20;;;;;;;26.69;50.62;100135.44;7400612;19;20015;-52
2023/08/07 04:15:07;;;;;;;0.38;0.38;;;;;;;26.62;51.05;100130.53;7399503;19;20010;-52
2023/08/07 04:17:34;;;;;;;1.40;0.70;;;;;;;26.82;51.45;100138.03;7398567;19;20006;-52
2023/08/07 04:20:03;;;;;;;0.73;0.68;;;;;;;26.89;51.44;100136.47;7399841;19;20019;-52
2023/08/07 04:22:29;;;;;;;0.30;0.25;;;;;;;26.90;51.55;100133.03;7396946;19;20053;-52
2023/08/07 04:24:56;;;;;;;0.45;0.20;;;;;;;27.01;51.69;100132.56;7402570;19;20018;-52
2023/08/07 04:27:22;;;;;;;1.10;0.75;;;;;;;26.79;51.40;100135.59;7398418;19;20029;-52
2023/08/07 04:29:48;;;;;;;0.10;0.10;;;;;;;26.75;52.25;100133.13;7399511;19;20010;-52
2023/08/07 04:32:14;;;;;;;0.65;0.55;;;;;;;26.86;52.54;100126.97;7397727;19;20018;-51
2023/08/07 04:34:41;;;;;;;0.65;0.20;;;;;;;26.99;52.69;100126.66;7398712;19;20467;-52
2023/08/07 04:37:07;;;;;;;3.30;0.30;;;;;;;26.87;52.73;100134.22;7401875;19;20014;-52
2023/08/07 04:39:33;;;;;;;0.50;0.35;;;;;;;26.94;53.64;100124.06;7400952;19;20050;-52
2023/08/07 04:41:59;;;;;;;0.10;0.10;;;;;;;27.15;53.59;100127.31;7395919;19;20014;-52
2023/08/07 04:44:26;;;;;;;1.13;0.50;;;;;;;27.13;53.51;100132.09;7397230;19;20010;-51
2023/08/07 04:46:52;;;;;;;0.10;0.10;;;;;;;27.15;53.79;100135.88;7397782;19;20010;-52
2023/08/07 04:49:18;;;;;;;1.02;0.47;;;;;;;27.18;54.17;100128.25;7399865;19;20019;-52
2023/08/07 04:51:44;;;;;;;0.50;0.35;;;;;;;27.18;54.00;100126.13;7398945;19;20019;-52
2023/08/07 04:54:10;;;;;;;0.10;0.10;;;;;;;27.24;54.07;100128.75;7397015;19;20027;-52
2023/08/07 04:56:37;;;;;;;0.13;0.13;;;;;;;27.31;54.04;100131.53;7396119;19;20028;-52
2023/08/07 04:59:03;;;;;;;1.05;0.50;;;;;;;27.41;54.23;100137.38;7396493;19;20010;-52
2023/08/07 05:01:29;;;;;;;0.10;0.10;;;;;;;27.43;53.77;100144.03;7399063;19;20320;-52
2023/08/07 05:03:55;;;;;;;0.10;0.10;;;;;;;27.59;54.03;100138.94;7397242;19;20348;-52
2023/08/07 05:06:21;;;;;;;2.72;0.93;;;;;;;27.58;54.11;100134.53;7393983;19;20336;-53
2023/08/07 05:08:47;;;;;;;0.20;0.10;;;;;;;27.51;53.79;100138.25;7397539;19;20011;-52
2023/08/07 05:11:15;;;;;;;0.20;0.20;;;;;;;27.50;53.97;100134.63;7401521;19;20039;-52
2023/08/07 05:13:41;;;;;;;0.20;0.20;;;;;;;27.49;54.19;100130.25;7397347;19;20011;-52
2023/08/07 05:16:07;;;;;;;3.20;0.52;;;;;;;27.63;54.13;100134.31;7397938;19;20010;-52
2023/08/07 05:18:33;;;;;;;1.17;0.63;;;;;;;27.68;53.24;100139.00;7397793;19;20467;-52
2023/08/07 05:20:59;;;;;;;0.30;0.10;;;;;;;27.70;53.70;100144.13;7398300;19;20502;-53
2023/08/07 05:23:25;;;;;;;2.55;0.20;;;;;;;27.70;53.54;100139.19;7396746;19;20014;-53
2023/08/07 05:25:51;;;;;;;0.20;0.10;;;;;;;27.71;53.19;100129.25;7398452;19;20013;-52
2023/08/07 05:28:17;;;;;;;0.52;0.30;;;;;;;27.57;52.96;100138.78;7396485;19;20562;-52
2023/08/07 05:30:44;;;;;;;0.50;0.20;;;;;;;27.45;52.82;100141.34;7396659;19;20027;-52
2023/08/07 05:33:10;;;;;;;0.68;0.30;;;;;;;27.52;53.02;100134.81;7398114;19;20011;-52
2023/08/07 05:35:38;;;;;;;0.30;0.30;;;;;;;27.48;52.55;100140.16;7396533;19;20014;-52
2023/08/07 05:38:04;;;;;;;0.70;0.13;;;;;;;27.48;52.46;100134.44;7397622;19;20015;-52
2023/08/07 05:40:30;;;;;;;0.32;0.13;;;;;;;27.51;52.87;100132.50;7399315;19;20065;-52
2023/08/07 05:42:57;;;;;;;0.20;0.20;;;;;;;27.60;53.33;100131.84;7394901;19;20017;-52
2023/08/07 05:45:23;;;;;;;0.28;0.10;;;;;;;27.78;53.24;100134.16;7397058;19;20015;-52
2023/08/07 05:47:49;;;;;;;0.57;0.20;;;;;;;27.77;53.42;100131.84;7397113;19;20230;-52
2023/08/07 05:50:15;;;;;;;0.10;0.10;;;;;;;27.79;53.20;100135.66;7395720;19;20010;-52
2023/08/07 05:52:41;;;;;;;0.10;0.10;;;;;;;27.79;53.73;100126.28;7396428;19;20010;-52
2023/08/07 05:55:08;;;;;;;0.30;0.20;;;;;;;27.92;53.82;100125.94;7395557;19;20014;-52
2023/08/07 05:57:34;;;;;;;0.40;0.20;;;;;;;27.70;54.31;100127.72;7395944;19;20014;-52
2023/08/07 06:00:01;;;;;;;0.25;0.25;;;;;;;27.94;54.01;100123.25;7396276;19;20038;-53
2023/08/07 06:02:38;;;;;;;0.57;0.20;;;;;;;27.92;53.88;100130.91;7395804;19;20087;-52
2023/08/07 06:05:04;;;;;;;0.43;0.20;;;;;;;27.88;54.05;100133.44;7397063;19;20025;-53
2023/08/07 06:07:30;;;;;;;0.57;0.45;;;;;;;28.06;54.12;100135.75;7395897;19;20350;-52
2023/08/07 06:09:56;;;;;;;0.10;0.10;;;;;;;28.20;54.39;100145.50;7396713;19;20014;-52
2023/08/07 06:12:22;;;;;;;2.15;0.40;;;;;;;28.21;54.28;100140.53;7399583;19;20478;-51
2023/08/07 06:14:48;;;;;;;0.30;0.30;;;;;;;28.21;54.16;100147.03;7394523;19;20010;-52
2023/08/07 06:17:14;;;;;;;0.95;0.50;;;;;;;28.17;54.56;100146.69;7395074;19;20018;-52
2023/08/07 06:19:41;;;;;;;0.30;0.20;;;;;;;28.30;54.67;100154.94;7395768;19;20006;-52
2023/08/07 06:22:07;;;;;;;0.40;0.35;;;;;;;28.41;54.49;100154.38;7398529;19;20017;-52
2023/08/07 06:24:33;;;;;;;0.25;0.25;;;;;;;28.36;54.81;100140.31;7395467;19;20015;-52
2023/08/07 06:26:59;;;;;;;4.43;0.70;;;;;;;28.51;54.71;100145.84;7395951;19;20035;-52
2023/08/07 06:29:25;;;;;;;2.05;0.40;;;;;;;28.69;54.36;100138.75;7396048;19;20022;-52
2023/08/07 06:31:51;;;;;;;0.80;0.75;;;;;;;28.89;54.11;100146.06;7397700;19;20505;-51
2023/08/07 06:34:18;;;;;;;0.38;0.35;;;;;;;28.99;53.84;100148.97;7395898;19;20074;-52
2023/08/07 06:36:44;;;;;;;2.83;0.45;;;;;;;28.99;54.49;100148.97;7396000;19;20018;-52
2023/08/07 06:39:10;;;;;;;0.15;0.10;;;;;;;29.05;53.92;100147.34;7394305;19;20396;-51
2023/08/07 06:41:37;;;;;;;0.10;0.10;;;;;;;28.88;54.37;100147.44;7397314;19;20022;-52
2023/08/07 06:44:03;;;;;;;0.93;0.22;;;;;;;28.99;54.74;100149.75;7395863;19;20023;-51
2023/08/07 06:46:30;;;;;;;0.45;0.25;;;;;;;29.19;54.56;100142.00;7394394;19;20032;-51
2023/08/07 06:48:56;;;;;;;1.45;0.40;;;;;;;29.19;54.15;100139.13;7394431;19;20018;-51
2023/08/07 06:51:22;;;;;;;0.20;0.15;;;;;;;29.10;53.94;100142.69;7396544;19;20022;-51
2023/08/07 06:53:48;;;;;;;2.05;0.20;;;;;;;29.24;53.74;100146.66;7393938;19;20011;-52
2023/08/07 06:56:14;;;;;;;0.32;0.10;;;;;;;29.46;53.78;100150.50;7393864;19;20015;-52
2023/08/07 06:58:40;;;;;;;0.75;0.25;;;;;;;29.65;54.05;100148.41;7395000;19;20010;-52
2023/08/07 07:01:06;;;;;;;0.10;0.10;;;;;;;29.63;54.47;100145.41;7395302;19;20355;-51
2023/08/07 07:03:33;;;;;;;0.30;0.15;;;;;;;29.67;54.41;100139.94;7390330;19;20083;-51
2023/08/07 07:05:59;;;;;;;0.65;0.13;;;;;;;29.63;54.19;100141.75;7392704;19;20015;-52
2023/08/07 07:08:25;;;;;;;0.95;0.30;;;;;;;29.62;54.38;100140.25;7392622;19;20027;-51
2023/08/07 07:10:51;;;;;;;0.28;0.10;;;;;;;29.74;54.26;100141.19;7396965;19;20025;-52
2023/08/07 07:13:17;;;;;;;2.17;0.28;;;;;;;29.68;54.56;100137.84;7393154;19;20025;-52
2023/08/07 07:15:44;;;;;;;2.15;0.30;;;;;;;29.64;53.75;100135.44;7393680;19;20011;-52
2023/08/07 07:18:10;;;;;;;0.10;0.10;;;;;;;29.68;54.23;100138.63;7396691;19;20007;-53
2023/08/07 07:20:36;;;;;;;1.30;0.20;;;;;;;29.70;54.10;100147.38;7395156;19;20346;-52
2023/08/07 07:23:02;;;;;;;1.90;0.28;;;;;;;29.74;53.74;100141.19;7393814;19;20014;-51
2023/08/07 07:25:28;;;;;;;1.20;0.60;;;;;;;29.69;54.04;100140.09;7394778;19;20393;-51
2023/08/07 07:27:54;;;;;;;0.10;0.10;;;;;;;29.71;53.39;100145.28;7394750;19;20388;-51
2023/08/07 07:30:21;;;;;;;0.40;0.10;;;;;;;29.82;53.65;100154.06;7391803;19;20014;-51
2023/08/07 07:32:50;;;;;;;0.38;0.20;;;;;;;30.03;53.59;100155.56;7393951;19;20018;-51
2023/08/07 07:35:16;;;;;;;1.33;0.52;;;;;;;29.69;53.69;100154.47;7393571;19;20019;-52
2023/08/07 07:37:42;;;;;;;0.60;0.40;;;;;;;29.70;53.69;100158.09;7397408;19;20027;-51
2023/08/07 07:40:09;;;;;;;1.15;0.35;;;;;;;29.83;52.93;100155.56;7394572;19;20589;-52
2023/08/07 07:42:36;;;;;;;0.77;0.20;;;;;;;29.72;53.19;100161.88;7392819;19;20030;-51
2023/08/07 07:45:02;;;;;;;0.77;0.20;;;;;;;29.73;52.75;100172.03;7393684;19;20359;-52
2023/08/07 07:47:28;;;;;;;3.28;0.73;;;;;;;29.71;52.29;100169.00;7393531;19;20019;-51
2023/08/07 07:50:06;;;;;;;1.25;0.55;;;;;;;29.78;52.38;100168.09;7393355;19;20347;-51
2023/08/07 07:52:32;;;;;;;0.47;0.40;;;;;;;30.01;52.92;100152.56;7397860;19;20015;-52
2023/08/07 07:54:58;;;;;;;0.57;0.28;;;;;;;30.09;52.68;100158.91;7391665;19;20022;-52
2023/08/07 07:57:24;;;;;;;0.40;0.40;;;;;;;30.10;52.36;100157.53;7393792;19;20477;-52
2023/08/07 07:59:50;;;;;;;1.90;0.45;;;;;;;29.88;52.35;100171.75;7393731;19;20006;-51
2023/08/07 08:02:17;;;;;;;1.38;0.30;;;;;;;29.88;52.71;100165.25;7394464;19;20043;-50
2023/08/07 08:04:43;;;;;;;1.55;0.65;;;;;;;30.02;52.51;100165.56;7392669;19;20357;-50
2023/08/07 08:07:09;;;;;;;2.10;1.05;;;;;;;30.05;52.30;100164.34;7393017;19;20074;-51
2023/08/07 08:09:35;;;;;;;0.75;0.52;;;;;;;30.01;52.29;100161.16;7393009;19;20066;-51
2023/08/07 08:12:01;;;;;;;2.78;1.00;;;;;;;29.90;53.00;100153.91;7397423;19;20010;-51
2023/08/07 08:14:28;;;;;;;1.25;0.50;;;;;;;30.33;53.14;100161.47;7393516;19;20018;-50
2023/08/07 08:16:54;;;;;;;3.63;1.23;;;;;;;30.61;53.37;100157.03;7392765;19;20389;-51
2023/08/07 08:19:20;;;;;;;10.80;2.03;;;;;;;30.58;53.18;100152.50;7393863;19;20082;-51
2023/08/07 08:21:46;;;;;;;3.72;0.65;;;;;;;30.73;52.98;100157.16;7395906;19;20070;-50
2023/08/07 08:24:12;;;;;;;0.43;0.13;;;;;;;30.90;52.67;100159.84;7392843;19;20007;-51
2023/08/07 08:26:38;;;;;;;1.58;0.30;;;;;;;30.95;52.27;100159.50;7392521;19;20019;-50
2023/08/07 08:29:06;;;;;;;1.10;0.43;;;;;;;31.00;51.24;100146.94;7392430;19;20412;-49
2023/08/07 08:31:34;;;;;;;8.05;0.73;;;;;;;31.11;51.08;100157.78;7395681;19;20010;-50
2023/08/07 08:34:00;;;;;;;0.10;0.05;;;;;;;31.00;50.64;100155.56;7392375;19;20006;-51
2023/08/07 08:36:26;;;;;;;0.57;0.57;;;;;;;31.08;50.28;100159.00;7393882;19;20007;-50
2023/08/07 08:38:52;;;;;;;4.32;1.30;;;;;;;31.10;49.85;100155.53;7392650;19;20018;-50
2023/08/07 08:41:20;;;;;;;4.28;0.32;;;;;;;31.30;49.35;100149.06;7400238;19;20014;-50
2023/08/07 08:43:47;;;;;;;2.15;0.45;;;;;;;31.16;49.73;100153.84;7397520;19;20010;-49
2023/08/07 08:46:16;;;;;;;0.30;0.30;;;;;;;31.33;48.88;100150.72;7399099;19;20038;-50
2023/08/07 08:48:46;;;;;;;2.55;0.20;;;;;;;31.47;48.86;100144.44;7398349;19;20493;-50
2023/08/07 08:51:13;;;;;;;2.95;0.47;;;;;;;31.31;49.14;100150.56;7400527;19;20010;-50
2023/08/07 08:53:39;;;;;;;1.45;0.77;;;;;;;31.06;48.38;100150.22;7396647;19;20248;-50
2023/08/07 08:56:06;;;;;;;0.10;0.00;;;;;;;31.11;48.33;100157.78;7398031;19;20015;-50
2023/08/07 08:58:34;;;;;;;0.63;0.63;;;;;;;30.96;47.38;100152.41;7397716;19;20006;-50
2023/08/07 09:01:01;;;;;;;0.68;0.50;;;;;;;31.15;47.73;100155.19;7400154;19;20042;-50
2023/08/07 09:03:27;;;;;;;2.65;0.35;;;;;;;31.52;48.35;100160.63;7396641;19;20042;-50
2023/08/07 09:05:56;;;;;;;0.35;0.35;;;;;;;31.70;48.13;100156.09;7398743;19;20025;-50
2023/08/07 09:08:26;;;;;;;0.68;0.45;;;;;;;31.49;47.37;100147.47;7397066;19;20380;-50
2023/08/07 09:10:53;;;;;;;1.00;0.32;;;;;;;31.41;47.26;100148.41;7402620;19;20014;-51
2023/08/07 09:13:23;;;;;;;1.20;0.30;;;;;;;31.52;46.68;100154.84;7398632;19;20019;-51
2023/08/07 09:15:51;;;;;;;0.45;0.35;;;;;;;31.40;46.92;100149.00;7398354;19;20030;-50
2023/08/07 09:18:19;;;;;;;0.90;0.32;;;;;;;31.49;47.26;100138.81;7397258;19;20010;-51
2023/08/07 09:20:46;;;;;;;0.32;0.32;;;;;;;31.61;47.92;100146.16;7398912;19;20582;-50
2023/08/07 09:23:12;;;;;;;0.73;0.50;;;;;;;32.00;47.30;100146.66;7396360;19;20455;-50
2023/08/07 09:25:38;;;;;;;0.68;0.57;;;;;;;32.35;47.62;100135.25;7397666;19;20007;-50
2023/08/07 09:28:06;;;;;;;0.35;0.35;;;;;;;32.48;47.34;100138.31;7396536;19;20003;-50
2023/08/07 09:30:37;;;;;;;1.20;0.40;;;;;;;32.16;45.47;100136.19;7397057;19;20015;-50
2023/08/07 09:33:04;;;;;;;0.10;0.10;;;;;;;31.91;45.39;100133.03;7398416;19;20489;-50
2023/08/07 09:35:32;;;;;;;0.50;0.45;;;;;;;31.96;45.81;100131.97;7398318;19;20014;-50
2023/08/07 09:37:58;;;;;;;0.65;0.30;;;;;;;31.93;45.84;100153.34;7400506;19;20022;-50
2023/08/07 09:40:24;;;;;;;1.27;0.45;;;;;;;31.92;45.46;100135.28;7399297;19;20066;-50
2023/08/07 09:42:52;;;;;;;0.57;0.50;;;;;;;32.23;45.05;100129.44;7396530;19;20027;-49
2023/08/07 09:45:20;;;;;;;1.05;0.57;;;;;;;32.67;45.98;100131.56;7397634;19;20391;-50
2023/08/07 09:47:47;;;;;;;0.65;0.22;;;;;;;32.68;44.48;100122.28;7397593;19;20022;-51
2023/08/07 09:50:19;;;;;;;0.95;0.28;;;;;;;32.56;44.70;100127.28;7396783;19;20359;-50
2023/08/07 09:52:49;;;;;;;0.10;0.10;;;;;;;32.46;44.32;100135.28;7396358;19;20025;-50
2023/08/07 09:55:15;;;;;;;0.85;0.55;;;;;;;32.61;45.36;100134.84;7398351;19;20033;-51
2023/08/07 09:57:45;;;;;;;0.63;0.52;;;;;;;32.89;44.81;100133.75;7397181;19;20014;-50
2023/08/07 10:00:15;;;;;;;1.38;0.47;;;;;;;32.72;45.01;100128.34;7396692;19;20033;-50
2023/08/07 10:02:42;;;;;;;1.00;0.52;;;;;;;32.71;43.80;100126.81;7396057;19;20496;-50
2023/08/07 10:05:10;;;;;;;0.10;0.10;;;;;;;33.33;43.01;100127.06;7397301;19;20038;-50
2023/08/07 10:07:38;;;;;;;0.30;0.13;;;;;;;33.24;42.45;100119.31;7395766;19;20010;-50
2023/08/07 10:10:07;;;;;;;0.20;0.20;;;;;;;32.98;42.85;100125.59;7397347;19;20015;-50
2023/08/07 10:12:34;;;;;;;0.40;0.20;;;;;;;32.79;43.54;100123.69;7402822;19;20014;-50
2023/08/07 10:15:00;;;;;;;0.40;0.20;;;;;;;32.96;43.92;100119.69;7397004;19;20015;-49
2023/08/07 10:17:27;;;;;;;2.08;0.15;;;;;;;33.13;42.44;100119.31;7397236;19;20030;-50
2023/08/07 10:19:54;;;;;;;0.32;0.20;;;;;;;33.39;43.34;100118.03;7397068;19;20018;-50
2023/08/07 10:22:23;;;;;;;1.00;0.40;;;;;;;33.21;43.13;100116.94;7396494;19;20485;-49
2023/08/07 10:24:50;;;;;;;0.10;0.10;;;;;;;32.96;42.46;100117.56;7395574;19;20015;-50
2023/08/07 10:27:18;;;;;;;1.75;0.20;;;;;;;33.02;41.96;100120.09;7394460;19;20021;-50
2023/08/07 10:29:47;;;;;;;1.10;0.32;;;;;;;32.82;41.33;100114.53;7397158;19;20015;-50
2023/08/07 10:32:15;;;;;;;5.93;0.52;;;;;;;32.92;41.43;100110.78;7397343;19;20070;-50
2023/08/07 10:34:47;;;;;;;0.40;0.20;;;;;;;33.25;42.70;100109.28;7395630;19;20025;-51
2023/08/07 10:37:42;;;;;;;0.63;0.32;;;;;;;33.57;41.48;100108.34;7398819;19;20030;-50
2023/08/07 10:40:12;;;;;;;1.20;0.20;;;;;;;33.44;41.80;100114.03;7397714;19;20033;-51
2023/08/07 10:42:54;;;;;;;0.38;0.28;;;;;;;33.29;41.23;100115.28;7393918;19;20023;-50
2023/08/07 10:45:22;;;;;;;0.10;0.00;;;;;;;33.14;41.29;100115.03;7395006;19;20018;-51
2023/08/07 10:48:01;;;;;;;0.45;0.32;;;;;;;33.01;42.01;100124.38;7395080;19;20014;-50
2023/08/07 10:50:34;;;;;;;0.43;0.32;;;;;;;33.12;40.80;100109.91;7395384;19;20011;-51
2023/08/07 10:53:02;;;;;;;0.08;0.08;;;;;;;33.20;40.60;100109.66;7394236;19;20020;-51
2023/08/07 10:55:42;;;;;;;0.10;0.10;;;;;;;33.23;41.78;100117.06;7394440;19;20078;-51
2023/08/07 10:58:23;;;;;;;0.68;0.25;;;;;;;33.11;40.59;100104.78;7395087;19;20475;-51
2023/08/07 11:01:12;;;;;;;3.42;0.10;;;;;;;33.01;40.73;100107.06;7396137;19;20010;-50
2023/08/07 11:03:42;;;;;;;0.10;0.10;;;;;;;33.07;40.90;100104.53;7390348;19;20583;-50
2023/08/07 11:06:11;;;;;;;2.75;0.30;;;;;;;33.55;41.09;100096.69;7395621;19;20021;-50
2023/08/07 11:08:38;;;;;;;0.20;0.20;;;;;;;33.82;39.91;100096.09;7395349;19;20473;-50
2023/08/07 11:11:05;;;;;;;0.10;0.10;;;;;;;33.84;38.66;100087.53;7399482;19;20011;-50
2023/08/07 11:13:33;;;;;;;0.20;0.10;;;;;;;33.81;39.75;100088.06;7394941;19;20111;-50
2023/08/07 11:16:01;;;;;;;0.10;0.00;;;;;;;33.74;39.47;100086.97;7394638;19;20014;-50
2023/08/07 11:18:28;;;;;;;0.10;0.10;;;;;;;33.78;40.32;100098.75;7393238;19;20007;-52
2023/08/07 11:20:58;;;;;;;0.43;0.30;;;;;;;33.57;39.48;100093.16;7394824;19;20022;-50
2023/08/07 11:23:28;;;;;;;0.50;0.20;;;;;;;33.52;39.85;100091.41;7391447;19;20007;-50
2023/08/07 11:25:55;;;;;;;4.13;0.20;;;;;;;33.49;40.14;100093.41;7393283;19;20021;-50